KAXS/AXS METAR and TAF weather

Enter ICAO airport designator
Station Type Date Time Source
KAXS METAR 2020/01/24 15:55 UTC NOAA

KAXS 241555Z AUTO 31003KT 10SM OVC110 05/M02 A3022 RMK AO2 T00511016


Station Type Date Time Source
KAXS Decoded METAR 2020/01/24 15:55 UTC NOAA

Altus, Altus/Quartz Mountain Regional Airport, OK, United States (KAXS) 34-41-55N 099-20-17W
Jan 24, 2020 - 10:55 AM EST / 2020.01.24 1555 UTC
Wind: from the NW (310 degrees) at 3 MPH (3 KT):0
Visibility: 10 mile(s):0
Sky conditions: overcast
Temperature: 41.2 F (5.1 C)
Dew Point: 29.1 F (-1.6 C)
Relative Humidity: 61%
Pressure (altimeter): 30.22 in. Hg (1023 hPa)
ob: KAXS 241555Z AUTO 31003KT 10SM OVC110 05/M02 A3022 RMK AO2 T00511016
cycle: 16

Station Type Date Time Source
KAXS TAF UTC NOAA

Error!

Example: see airport list